Time;durP1;ratioP1;P1;durP2;ratioP2;P2;SDS_P1;SDS_P2;PMS_P1;PMS_P2;Temp;Humidity;BMP_temperature;BMP_pressure;BME280_temperature;BME280_humidity;BME280_pressure;Samples;Min_cycle;Max_cycle;Signal;HPM_P1;HPM_P2
2022/11/26 00:00:27;;;;;;;;;13.50;12.00;;;;;10.92;68.56;102059.88;5071547;27;45792;-76
2022/11/26 00:02:53;;;;;;;;;13.75;12.25;;;;;10.97;68.55;102064.03;5070427;27;45765;-75
2022/11/26 00:05:19;;;;;;;;;13.00;11.50;;;;;10.99;68.54;102076.16;5068471;28;46735;-76
2022/11/26 00:07:53;;;;;;;;;16.00;13.00;;;;;11.03;68.55;102079.47;5070499;27;46304;-76
2022/11/26 00:10:27;;;;;;;;;8.25;8.25;;;;;11.03;68.65;102084.72;5062794;28;45818;-76
2022/11/26 00:12:53;;;;;;;;;13.25;11.00;;;;;10.98;68.62;102079.69;5068364;27;45798;-77
2022/11/26 00:15:22;;;;;;;;;12.75;12.00;;;;;11.03;68.46;102090.81;5070338;28;46265;-76
2022/11/26 00:17:50;;;;;;;;;15.50;12.00;;;;;11.02;68.49;102088.25;5070198;27;46207;-76
2022/11/26 00:20:17;;;;;;;;;14.00;11.00;;;;;11.01;68.58;102090.06;5070631;27;45738;-76
2022/11/26 00:22:49;;;;;;;;;9.00;9.00;;;;;11.00;68.52;102090.97;5070675;27;46013;-77
2022/11/26 00:25:23;;;;;;;;;14.25;9.00;;;;;11.01;68.49;102099.69;5069730;28;47744;-76
2022/11/26 00:27:51;;;;;;;;;9.25;9.00;;;;;10.93;68.64;102095.66;5069178;28;47969;-77
2022/11/26 00:30:18;;;;;;;;;9.00;8.00;;;;;10.91;68.61;102097.50;5066045;27;46631;-77
2022/11/26 00:32:43;;;;;;;;;7.75;6.50;;;;;10.82;68.76;102097.09;5070691;27;45769;-76
2022/11/26 00:35:09;;;;;;;;;8.50;8.50;;;;;10.84;68.79;102108.38;5070743;28;46189;-77
2022/11/26 00:37:39;;;;;;;;;12.25;9.75;;;;;10.81;68.90;102104.13;5070149;27;46101;-76
2022/11/26 00:40:06;;;;;;;;;10.75;8.25;;;;;10.81;68.69;102101.50;5069997;28;45986;-77
2022/11/26 00:42:31;;;;;;;;;7.75;7.50;;;;;10.78;69.07;102092.94;5070117;27;46253;-76
2022/11/26 00:44:56;;;;;;;;;12.00;11.00;;;;;10.72;68.91;102086.22;5070381;27;45844;-76
2022/11/26 00:47:23;;;;;;;;;13.25;12.00;;;;;10.77;69.01;102102.56;5069563;27;46170;-76
2022/11/26 00:49:48;;;;;;;;;12.25;9.00;;;;;10.74;68.91;102100.06;5070357;28;46363;-76
2022/11/26 00:52:31;;;;;;;;;17.50;10.50;;;;;10.73;68.85;102102.78;5070437;27;45815;-76
2022/11/26 00:54:57;;;;;;;;;11.00;8.75;;;;;10.77;69.00;102105.19;5066660;27;48049;-76
2022/11/26 00:57:23;;;;;;;;;12.50;9.00;;;;;10.74;69.09;102107.94;5062621;28;46046;-75
2022/11/26 00:59:48;;;;;;;;;11.00;8.75;;;;;10.76;69.10;102110.50;5070298;27;45824;-76
2022/11/26 01:02:14;;;;;;;;;11.25;9.25;;;;;10.76;69.16;102107.88;5070451;27;45716;-76
2022/11/26 01:04:39;;;;;;;;;12.75;11.75;;;;;10.72;69.06;102107.19;5064540;27;46319;-77
2022/11/26 01:07:04;;;;;;;;;15.75;12.75;;;;;10.74;69.13;102113.19;5069740;27;46586;-76
2022/11/26 01:09:30;;;;;;;;;13.00;11.75;;;;;10.74;69.20;102118.44;5069507;27;45751;-76
2022/11/26 01:11:55;;;;;;;;;9.00;8.00;;;;;10.73;69.29;102110.66;5070016;27;45692;-74
2022/11/26 01:14:23;;;;;;;;;11.00;11.00;;;;;10.71;68.97;102110.72;5072660;27;47321;-76
2022/11/26 01:16:50;;;;;;;;;11.00;6.75;;;;;10.68;69.33;102110.03;5070086;27;47317;-77
2022/11/26 01:19:16;;;;;;;;;9.50;7.00;;;;;10.68;69.29;102103.03;5069440;27;45978;-76
2022/11/26 01:21:41;;;;;;;;;12.25;10.50;;;;;10.72;69.07;102103.72;5065449;28;45765;-75
2022/11/26 01:24:08;;;;;;;;;12.75;7.25;;;;;10.75;69.16;102108.78;5066119;28;46422;-76
2022/11/26 01:26:38;;;;;;;;;7.75;6.00;;;;;10.76;69.16;102116.59;5069704;28;47395;-77
2022/11/26 01:29:04;;;;;;;;;7.75;6.25;;;;;10.77;69.16;102112.22;5069908;28;46151;-75
2022/11/26 01:31:31;;;;;;;;;12.25;8.75;;;;;10.78;69.04;102112.13;5068426;28;45797;-75
2022/11/26 01:33:57;;;;;;;;;13.25;7.50;;;;;10.78;69.05;102113.91;5066327;27;46009;-75
2022/11/26 01:36:29;;;;;;;;;10.00;8.00;;;;;10.81;68.91;102114.59;5069817;28;45746;-76
2022/11/26 01:38:58;;;;;;;;;8.25;8.00;;;;;10.83;69.08;102115.38;5062566;27;46366;-76
2022/11/26 01:41:52;;;;;;;;;9.00;7.00;;;;;10.86;68.82;102114.38;5069499;27;45831;-76
2022/11/26 01:44:20;;;;;;;;;9.25;7.00;;;;;10.83;69.08;102101.44;5061894;28;45893;-75
2022/11/26 01:46:47;;;;;;;;;10.25;8.25;;;;;10.87;68.94;102106.44;5068720;27;46189;-76
2022/11/26 01:49:19;;;;;;;;;8.50;6.25;;;;;10.89;68.82;102103.75;5069171;28;46038;-76
2022/11/26 01:51:47;;;;;;;;;7.25;7.00;;;;;10.91;68.88;102100.13;5069399;27;46027;-76
2022/11/26 01:54:13;;;;;;;;;8.00;7.00;;;;;10.89;68.96;102102.00;5068383;27;47687;-75
2022/11/26 01:56:48;;;;;;;;;7.00;4.00;;;;;10.93;68.78;102110.53;5069004;27;47030;-76
2022/11/26 01:59:20;;;;;;;;;8.75;7.25;;;;;10.92;68.81;102125.44;5069494;27;46066;-75
2022/11/26 02:01:48;;;;;;;;;9.00;8.25;;;;;10.93;68.83;102116.66;5069041;28;45723;-75
2022/11/26 02:04:18;;;;;;;;;10.00;7.00;;;;;10.95;68.71;102119.19;5062292;27;46566;-77
2022/11/26 02:06:46;;;;;;;;;9.50;8.75;;;;;10.94;68.78;102107.00;5068864;28;46899;-74
2022/11/26 02:09:13;;;;;;;;;12.75;9.00;;;;;10.97;68.60;102114.72;5069282;28;45914;-76
2022/11/26 02:11:39;;;;;;;;;9.25;7.25;;;;;10.97;68.69;102117.34;5067771;28;45966;-75
2022/11/26 02:14:19;;;;;;;;;12.00;10.25;;;;;10.98;68.79;102115.56;5062921;27;46386;-76
2022/11/26 02:16:47;;;;;;;;;16.00;12.00;;;;;10.98;68.75;102112.94;5068496;27;47044;-76
2022/11/26 02:19:34;;;;;;;;;16.00;12.25;;;;;10.98;68.63;102112.94;5069001;27;45956;-77
2022/11/26 02:22:19;;;;;;;;;14.00;12.00;;;;;10.98;68.65;102112.94;5069122;27;45776;-76
2022/11/26 02:25:06;;;;;;;;;14.00;11.75;;;;;10.99;68.55;102109.41;5068848;27;46579;-74
2022/11/26 02:27:37;;;;;;;;;15.75;12.50;;;;;10.99;68.45;102098.91;5068604;27;46067;-75
2022/11/26 02:30:11;;;;;;;;;14.50;13.00;;;;;10.96;68.44;102089.41;5067931;28;46060;-76
2022/11/26 02:32:57;;;;;;;;;13.25;11.75;;;;;10.97;68.61;102085.88;5068809;27;46366;-75
2022/11/26 02:35:44;;;;;;;;;13.25;9.00;;;;;10.98;68.40;102089.34;5068601;27;46515;-77
2022/11/26 02:38:15;;;;;;;;;17.50;13.75;;;;;10.93;68.31;102087.78;5068755;27;46354;-76
2022/11/26 02:40:41;;;;;;;;;10.50;10.50;;;;;10.92;68.27;102085.25;5068035;27;45663;-75
2022/11/26 02:43:06;;;;;;;;;9.50;8.00;;;;;10.94;68.48;102092.13;5068640;27;45659;-76
2022/11/26 02:45:39;;;;;;;;;17.00;13.00;;;;;10.90;68.42;102097.59;5068196;27;47315;-75
2022/11/26 02:48:12;;;;;;;;;12.00;11.00;;;;;10.92;68.21;102111.47;5062206;28;46596;-76
2022/11/26 02:50:52;;;;;;;;;11.50;11.50;;;;;10.92;68.30;102108.84;5065018;28;45765;-76
2022/11/26 02:53:21;;;;;;;;;13.00;11.00;;;;;10.88;68.28;102110.78;5067484;27;45701;-76
2022/11/26 02:55:51;;;;;;;;;10.00;10.00;;;;;10.92;68.04;102108.84;5065763;27;46403;-76
2022/11/26 02:58:19;;;;;;;;;9.00;9.00;;;;;10.88;68.07;102100.28;5071599;27;47323;-76
2022/11/26 03:00:47;;;;;;;;;14.75;11.75;;;;;10.91;68.04;102112.38;5073268;27;46033;-76
2022/11/26 03:03:49;;;;;;;;;11.00;9.00;;;;;10.89;68.02;102104.63;5071469;27;45667;-75
2022/11/26 03:06:17;;;;;;;;;18.00;14.00;;;;;10.86;68.02;102104.75;4989932;28;47574;-76
2022/11/26 03:08:44;;;;;;;;;12.25;10.25;;;;;10.85;68.03;102105.66;4998126;28;47409;-75
2022/11/26 03:11:09;;;;;;;;;15.50;11.75;;;;;10.87;67.87;102106.44;5002373;28;45835;-74
2022/11/26 03:13:35;;;;;;;;;13.00;11.75;;;;;10.85;67.88;102108.28;5005406;28;45804;-75
2022/11/26 03:16:00;;;;;;;;;14.00;12.00;;;;;10.85;67.86;102105.66;5002796;28;46327;-75
2022/11/26 03:18:25;;;;;;;;;10.00;8.00;;;;;10.82;67.83;102097.09;4994744;28;47485;-75
2022/11/26 03:20:51;;;;;;;;;14.25;12.75;;;;;10.84;67.83;102114.47;5000713;28;45971;-76
2022/11/26 03:23:16;;;;;;;;;15.75;11.00;;;;;10.81;67.85;102100.66;5005856;28;46054;-76
2022/11/26 03:25:41;;;;;;;;;14.00;12.00;;;;;10.82;67.82;102105.81;4999892;28;46057;-76
2022/11/26 03:28:07;;;;;;;;;17.75;11.75;;;;;10.78;67.99;102103.44;4998242;28;46881;-76
2022/11/26 03:30:32;;;;;;;;;16.00;10.50;;;;;10.73;67.93;102103.66;5002004;28;46116;-76
2022/11/26 03:32:57;;;;;;;;;11.25;9.00;;;;;10.77;67.81;102104.34;4996942;28;46201;-76
2022/11/26 03:35:23;;;;;;;;;13.25;11.75;;;;;10.75;67.90;102109.66;4999479;28;46343;-75
2022/11/26 03:37:49;;;;;;;;;15.25;12.00;;;;;10.76;67.90;102110.50;4992965;28;46174;-75
2022/11/26 03:40:15;;;;;;;;;15.50;14.00;;;;;10.73;67.72;102106.28;5002041;28;46170;-75
2022/11/26 03:42:41;;;;;;;;;13.00;12.00;;;;;10.72;67.89;102103.72;5066845;27;46386;-75
2022/11/26 03:45:07;;;;;;;;;12.75;12.00;;;;;10.72;67.68;102107.19;5071347;27;47618;-75
2022/11/26 03:47:33;;;;;;;;;12.00;11.00;;;;;10.72;67.67;102111.56;5070959;27;45956;-75
2022/11/26 03:49:58;;;;;;;;;17.25;12.00;;;;;10.70;67.67;102109.03;5070073;28;46525;-76
2022/11/26 03:52:23;;;;;;;;;16.25;12.75;;;;;10.71;67.78;102104.63;5070899;27;45827;-76
2022/11/26 03:54:49;;;;;;;;;15.25;12.00;;;;;10.71;67.68;102112.50;5069427;27;46281;-75
2022/11/26 03:57:14;;;;;;;;;16.75;15.50;;;;;10.70;67.52;102116.03;5071443;27;46071;-75
2022/11/26 03:59:39;;;;;;;;;16.50;12.75;;;;;10.65;67.50;102112.78;5070490;27;45989;-76
2022/11/26 04:02:05;;;;;;;;;16.75;13.25;;;;;10.66;67.47;102109.25;5062624;28;45719;-75
2022/11/26 04:04:30;;;;;;;;;12.00;8.00;;;;;10.66;67.86;102110.09;5071776;27;46518;-76
2022/11/26 04:06:56;;;;;;;;;19.00;16.00;;;;;10.69;67.69;102114.34;5072150;28;46463;-75
2022/11/26 04:09:22;;;;;;;;;15.25;14.50;;;;;10.68;67.53;102110.03;5069515;27;45581;-76
2022/11/26 04:11:47;;;;;;;;;13.75;12.25;;;;;10.68;67.62;102115.28;5070039;27;45993;-75
2022/11/26 04:14:14;;;;;;;;;13.25;11.25;;;;;10.59;67.56;102103.44;5065613;27;45754;-76
2022/11/26 04:16:39;;;;;;;;;15.25;12.25;;;;;10.59;67.60;102118.31;5062851;27;46258;-75
2022/11/26 04:19:05;;;;;;;;;11.50;9.00;;;;;10.57;67.46;102120.16;5064711;27;45712;-77
2022/11/26 04:21:30;;;;;;;;;13.75;13.75;;;;;10.58;67.63;102109.59;5070823;27;46098;-76
2022/11/26 04:23:56;;;;;;;;;13.50;12.50;;;;;10.64;67.48;102125.03;5069981;27;46282;-76
2022/11/26 04:26:21;;;;;;;;;13.75;12.25;;;;;10.58;67.48;102114.00;5070982;27;46696;-75
2022/11/26 04:28:46;;;;;;;;;14.75;12.75;;;;;10.55;67.41;102106.28;5061907;27;45984;-75
2022/11/26 04:31:12;;;;;;;;;13.50;12.50;;;;;10.59;67.41;102102.59;5070708;27;45984;-76
2022/11/26 04:33:38;;;;;;;;;11.00;9.00;;;;;10.61;67.52;102106.00;5070719;27;46750;-75
2022/11/26 04:36:03;;;;;;;;;18.00;15.75;;;;;10.61;67.61;102114.69;5070527;27;46906;-76
2022/11/26 04:38:29;;;;;;;;;19.00;14.75;;;;;10.59;67.59;102111.28;5070082;27;45791;-75
2022/11/26 04:40:54;;;;;;;;;14.25;14.00;;;;;10.46;67.55;102095.31;5070463;27;45897;-75
2022/11/26 04:43:19;;;;;;;;;13.50;13.00;;;;;10.49;67.45;102105.63;5074957;27;46413;-76
2022/11/26 04:45:45;;;;;;;;;14.25;14.25;;;;;10.55;67.46;102125.47;5070604;27;46026;-76
2022/11/26 04:48:10;;;;;;;;;17.75;16.75;;;;;10.54;67.64;102121.16;5070341;27;45692;-75
2022/11/26 04:50:36;;;;;;;;;18.75;16.00;;;;;10.46;67.42;102113.66;5070393;28;45814;-76
2022/11/26 04:53:01;;;;;;;;;15.25;15.25;;;;;10.50;67.51;102112.59;5067966;28;46460;-76
2022/11/26 04:55:26;;;;;;;;;17.50;17.00;;;;;10.51;67.41;102121.31;5062819;28;45969;-75
2022/11/26 04:57:52;;;;;;;;;18.75;18.00;;;;;10.48;67.65;102121.44;5079411;27;45811;-76
2022/11/26 05:00:18;;;;;;;;;18.75;17.75;;;;;10.46;67.82;102120.66;5069059;28;45696;-74
2022/11/26 05:02:44;;;;;;;;;22.75;18.50;;;;;10.45;67.57;102121.59;5085815;27;48235;-75
2022/11/26 05:05:09;;;;;;;;;21.50;18.25;;;;;10.43;67.37;102121.66;5069183;28;46992;-75
2022/11/26 05:07:35;;;;;;;;;19.25;18.00;;;;;10.40;67.57;102131.44;5070655;27;46044;-76
2022/11/26 05:10:00;;;;;;;;;21.00;16.00;;;;;10.44;67.56;102140.84;5070005;27;46184;-76
2022/11/26 05:12:26;;;;;;;;;17.75;14.00;;;;;10.37;67.56;102136.78;5068110;28;47826;-75
2022/11/26 05:14:51;;;;;;;;;21.50;16.25;;;;;10.41;67.59;102136.59;5070652;27;45894;-76
2022/11/26 05:17:17;;;;;;;;;15.25;8.50;;;;;10.37;67.31;102132.41;5068871;28;45896;-74
2022/11/26 05:19:42;;;;;;;;;17.75;16.25;;;;;10.40;67.53;102136.66;5068253;27;45750;-76
2022/11/26 05:22:08;;;;;;;;;19.75;18.00;;;;;10.36;67.62;102141.22;5067241;28;45974;-75
2022/11/26 05:24:33;;;;;;;;;21.75;18.50;;;;;10.37;67.43;102148.13;5070339;27;46111;-76
2022/11/26 05:26:58;;;;;;;;;21.50;17.25;;;;;10.36;67.51;102148.22;5069279;27;46857;-75
2022/11/26 05:29:24;;;;;;;;;19.25;17.75;;;;;10.32;67.60;102152.72;5069317;27;45773;-75
2022/11/26 05:31:50;;;;;;;;;19.00;17.50;;;;;10.30;67.84;102153.72;5069427;27;46558;-75
2022/11/26 05:34:15;;;;;;;;;22.25;20.00;;;;;10.34;67.38;102165.75;5068656;28;45744;-73
2022/11/26 05:36:41;;;;;;;;;22.00;17.75;;;;;10.33;67.93;102156.19;5062322;27;45830;-76
2022/11/26 05:39:06;;;;;;;;;19.50;14.00;;;;;10.32;67.57;102151.88;5069342;27;46699;-75
2022/11/26 05:41:31;;;;;;;;;19.75;18.25;;;;;10.34;67.30;102147.41;5069410;27;47598;-75
2022/11/26 05:43:57;;;;;;;;;22.00;20.25;;;;;10.31;67.63;102144.94;5069220;27;46018;-75
2022/11/26 05:46:22;;;;;;;;;20.50;17.25;;;;;10.32;67.40;102157.09;5069789;27;46126;-74
2022/11/26 05:48:47;;;;;;;;;21.75;16.75;;;;;10.35;67.44;102175.31;5068170;28;45860;-76
2022/11/26 05:51:13;;;;;;;;;22.00;18.50;;;;;10.34;67.29;102171.00;5069132;27;45889;-77
2022/11/26 05:53:38;;;;;;;;;19.75;17.00;;;;;10.34;67.46;102177.09;5061168;27;46013;-75
2022/11/26 05:56:04;;;;;;;;;18.50;16.50;;;;;10.34;67.34;102178.84;5055902;28;45989;-75
2022/11/26 05:58:31;;;;;;;;;18.75;16.00;;;;;10.35;67.24;102177.94;5065092;27;45814;-76
2022/11/26 06:00:56;;;;;;;;;17.25;15.00;;;;;10.29;67.41;102173.81;5056705;28;46195;-74
2022/11/26 06:03:21;;;;;;;;;17.75;14.75;;;;;10.30;67.45;102174.69;5061040;28;46363;-76
2022/11/26 06:05:47;;;;;;;;;15.50;13.75;;;;;10.31;66.97;102177.22;5064512;27;46006;-75
2022/11/26 06:08:12;;;;;;;;;16.00;14.25;;;;;10.30;67.25;102177.31;5066139;27;45844;-77
2022/11/26 06:10:41;;;;;;;;;16.00;14.25;;;;;10.27;67.38;102180.91;5059838;28;46453;-75
2022/11/26 06:13:06;;;;;;;;;22.00;16.50;;;;;10.29;67.32;102191.31;5068256;27;46322;-76
2022/11/26 06:15:32;;;;;;;;;19.50;16.25;;;;;10.28;67.37;102200.09;5069985;27;46128;-76
2022/11/26 06:17:57;;;;;;;;;15.75;14.50;;;;;10.31;67.11;102215.69;5068104;27;46055;-76
2022/11/26 06:20:22;;;;;;;;;17.00;16.75;;;;;10.29;67.14;102220.97;5061937;27;46503;-75
2022/11/26 06:22:48;;;;;;;;;18.00;16.50;;;;;10.27;67.16;102217.56;5069230;27;46179;-76
2022/11/26 06:25:13;;;;;;;;;18.25;14.75;;;;;10.19;67.32;102206.59;5069815;27;45939;-75
2022/11/26 06:27:39;;;;;;;;;14.75;13.25;;;;;10.31;67.39;102223.53;5065847;27;46228;-75
2022/11/26 06:30:07;;;;;;;;;17.00;14.25;;;;;10.31;67.20;102194.72;5069123;27;45757;-76
2022/11/26 06:32:32;;;;;;;;;16.50;14.00;;;;;10.31;67.34;102192.94;5067346;28;47941;-75
2022/11/26 06:34:57;;;;;;;;;17.00;14.00;;;;;10.26;67.13;102181.81;5069433;27;45645;-74
2022/11/26 06:37:24;;;;;;;;;20.50;18.00;;;;;10.22;67.28;102189.88;5081429;27;46156;-75
2022/11/26 06:39:50;;;;;;;;;15.25;14.25;;;;;10.20;67.40;102195.19;5068665;27;47472;-74
2022/11/26 06:42:17;;;;;;;;;15.25;12.50;;;;;10.21;67.23;102206.50;5067516;28;47359;-76
2022/11/26 06:44:42;;;;;;;;;17.25;16.75;;;;;10.22;67.20;102218.69;5060132;27;45779;-76
2022/11/26 06:47:12;;;;;;;;;19.75;17.00;;;;;10.18;67.37;102215.34;5068003;28;45906;-77
2022/11/26 06:49:38;;;;;;;;;21.75;18.00;;;;;10.19;67.28;102218.81;5068188;27;45818;-75
2022/11/26 06:52:03;;;;;;;;;21.50;20.75;;;;;10.19;67.33;102224.06;5068697;27;46224;-75
2022/11/26 06:54:29;;;;;;;;;20.75;19.75;;;;;10.19;67.15;102238.00;5068058;27;45784;-75
2022/11/26 06:56:54;;;;;;;;;21.25;20.75;;;;;10.18;67.14;102240.69;5055065;27;45673;-77
2022/11/26 06:59:19;;;;;;;;;16.00;14.25;;;;;10.17;67.06;102239.84;5068994;27;45839;-77
2022/11/26 07:01:45;;;;;;;;;17.75;16.75;;;;;10.18;67.19;102238.06;5071630;27;46237;-76
2022/11/26 07:04:11;;;;;;;;;22.00;18.50;;;;;10.13;67.30;102219.06;5073491;27;45593;-76
2022/11/26 07:06:37;;;;;;;;;17.00;16.00;;;;;10.21;67.14;102222.22;5074044;28;45642;-77
2022/11/26 07:09:08;;;;;;;;;19.75;18.75;;;;;10.21;67.30;102232.69;5073287;27;45630;-77
2022/11/26 07:11:35;;;;;;;;;20.75;18.25;;;;;10.18;67.25;102219.75;5072493;27;46258;-75
2022/11/26 07:14:01;;;;;;;;;25.75;21.00;;;;;10.17;67.25;102228.50;5072886;27;45556;-76
2022/11/26 07:16:27;;;;;;;;;18.75;17.00;;;;;10.11;67.25;102219.97;5072514;27;46023;-76
2022/11/26 07:18:54;;;;;;;;;22.25;20.25;;;;;10.12;67.15;102226.06;5072560;27;46591;-76
2022/11/26 07:21:21;;;;;;;;;21.00;19.50;;;;;10.16;67.31;102245.09;5072650;27;46966;-76
2022/11/26 07:23:49;;;;;;;;;20.50;18.25;;;;;10.14;67.25;102241.72;5072797;27;45630;-76
2022/11/26 07:26:16;;;;;;;;;17.50;17.00;;;;;10.09;67.11;102236.69;5072902;27;45696;-75
2022/11/26 07:28:42;;;;;;;;;25.00;17.75;;;;;10.16;67.26;102251.22;5071283;28;46394;-75
2022/11/26 07:31:10;;;;;;;;;16.75;16.75;;;;;10.17;67.15;102246.84;5070697;28;46502;-76
2022/11/26 07:33:35;;;;;;;;;21.25;18.00;;;;;10.15;67.02;102246.88;5072160;27;45623;-75
2022/11/26 07:36:04;;;;;;;;;22.75;18.75;;;;;10.18;66.95;102251.16;5072847;27;45601;-73
2022/11/26 07:38:30;;;;;;;;;20.25;18.00;;;;;10.15;67.08;102240.81;5072332;27;47438;-75
2022/11/26 07:41:05;;;;;;;;;21.50;18.25;;;;;10.11;66.99;102226.97;5072310;27;47040;-75
2022/11/26 07:43:37;;;;;;;;;18.75;17.75;;;;;10.16;66.87;102235.50;5072601;27;45540;-74
2022/11/26 07:46:04;;;;;;;;;21.25;17.00;;;;;10.13;67.05;102235.63;5076549;27;45764;-76
2022/11/26 07:48:31;;;;;;;;;17.50;17.00;;;;;10.15;67.25;102231.16;5074307;28;48661;-76
2022/11/26 07:51:00;;;;;;;;;17.75;16.00;;;;;10.14;67.11;102223.38;5076181;27;45738;-75
2022/11/26 07:53:30;;;;;;;;;18.00;16.50;;;;;10.01;67.01;102196.88;5075975;27;45651;-75
2022/11/26 07:55:55;;;;;;;;;18.00;17.25;;;;;10.15;67.03;102222.47;5075893;27;46009;-75
2022/11/26 07:58:21;;;;;;;;;18.00;16.25;;;;;10.14;67.11;102212.91;5076172;27;46448;-74
2022/11/26 08:00:46;;;;;;;;;21.75;16.50;;;;;10.13;67.11;102214.69;5076176;27;46095;-76
2022/11/26 08:06:34;;;;;;;;;17.75;16.00;;;;;10.14;67.05;102223.38;5076071;28;45679;-74
2022/11/26 08:09:01;;;;;;;;;16.75;16.50;;;;;10.13;67.06;102229.53;5075648;27;46201;-75
2022/11/26 08:11:28;;;;;;;;;20.50;17.00;;;;;10.05;67.12;102216.75;5076039;27;46729;-76
2022/11/26 08:14:00;;;;;;;;;18.00;15.25;;;;;10.03;67.03;102229.09;5075972;27;45568;-74
2022/11/26 08:16:25;;;;;;;;;19.75;17.50;;;;;10.09;66.93;102247.16;5075697;27;45735;-74
2022/11/26 08:18:56;;;;;;;;;21.00;17.25;;;;;10.09;66.78;102257.63;5075292;27;47565;-75
2022/11/26 08:21:21;;;;;;;;;22.00;17.25;;;;;9.96;66.91;102231.09;5075798;27;46295;-76
2022/11/26 08:23:47;;;;;;;;;17.00;15.75;;;;;10.08;66.64;102256.78;5073880;28;45854;-75
2022/11/26 08:26:14;;;;;;;;;16.25;15.75;;;;;10.10;66.74;102254.06;5075056;27;45918;-76
2022/11/26 08:28:42;;;;;;;;;19.50;17.00;;;;;10.10;67.04;102260.16;5071105;27;45635;-76
2022/11/26 08:31:10;;;;;;;;;17.75;16.50;;;;;10.14;66.65;102267.91;5073443;27;47000;-78
2022/11/26 08:36:56;;;;;;;;;16.25;15.75;;;;;10.15;66.77;102259.97;5072686;28;45710;-76
2022/11/26 08:39:22;;;;;;;;;18.50;17.75;;;;;10.18;66.73;102248.56;5072203;27;47209;-77
2022/11/26 08:41:47;;;;;;;;;16.00;15.75;;;;;10.17;66.44;102250.31;5072545;27;46165;-75
2022/11/26 08:44:12;;;;;;;;;18.00;16.00;;;;;10.22;66.63;102252.72;5071489;28;45642;-75
2022/11/26 08:46:40;;;;;;;;;24.50;21.75;;;;;10.16;66.72;102232.91;5072806;27;45525;-75
2022/11/26 08:52:29;;;;;;;;;15.75;14.25;;;;;10.24;66.70;102251.75;5072323;28;45645;-75
2022/11/26 08:54:54;;;;;;;;;17.50;15.50;;;;;10.23;66.58;102242.19;5072497;27;45828;-76
2022/11/26 08:57:20;;;;;;;;;19.25;15.75;;;;;10.28;66.74;102260.31;5072658;27;46073;-75
2022/11/26 08:59:45;;;;;;;;;21.00;17.50;;;;;10.27;66.66;102254.22;5072147;27;45638;-74
2022/11/26 09:02:11;;;;;;;;;16.00;16.00;;;;;10.23;66.53;102251.81;5073875;27;46191;-76
2022/11/26 09:04:36;;;;;;;;;27.00;22.00;;;;;10.16;66.72;102246.00;5074229;27;45788;-74
2022/11/26 09:07:02;;;;;;;;;22.50;19.75;;;;;10.34;66.39;102271.41;5073805;27;45843;-76
2022/11/26 09:09:28;;;;;;;;;21.50;17.75;;;;;10.32;66.67;102262.75;5074273;27;45671;-78
2022/11/26 09:11:59;;;;;;;;;23.25;19.50;;;;;10.35;66.61;102265.25;5074552;27;46090;-78
2022/11/26 09:14:28;;;;;;;;;18.00;17.25;;;;;10.31;66.65;102260.22;5074517;27;45763;-76
2022/11/26 09:16:56;;;;;;;;;17.00;16.50;;;;;10.35;66.49;102267.00;5075243;27;45778;-75
2022/11/26 09:22:43;;;;;;;;;20.75;18.25;;;;;10.26;66.59;102256.91;5074010;28;45841;-78
2022/11/26 09:25:09;;;;;;;;;19.00;18.00;;;;;10.31;66.64;102262.84;5074472;27;45689;-77
2022/11/26 09:27:34;;;;;;;;;19.25;16.75;;;;;10.29;66.53;102251.56;5089703;27;45676;-77
2022/11/26 09:30:00;;;;;;;;;23.75;20.50;;;;;10.27;66.23;102240.28;5074345;27;45715;-77
2022/11/26 09:32:26;;;;;;;;;21.50;19.00;;;;;10.29;66.58;102244.56;5074360;27;45977;-77
2022/11/26 09:34:51;;;;;;;;;26.25;23.50;;;;;10.32;66.96;102252.25;5074555;27;45627;-75
2022/11/26 09:37:17;;;;;;;;;22.25;22.00;;;;;10.32;66.60;102262.75;5074598;27;45592;-77
2022/11/26 09:39:43;;;;;;;;;20.50;18.50;;;;;10.30;66.66;102261.97;5073827;27;45585;-76
2022/11/26 09:42:55;;;;;;;;;20.50;17.25;;;;;10.33;66.67;102263.59;5073712;27;46262;-77
2022/11/26 09:45:36;;;;;;;;;22.25;18.75;;;;;10.31;66.72;102252.34;5011766;28;45887;-77
2022/11/26 09:48:03;;;;;;;;;18.50;16.00;;;;;10.36;66.67;102258.25;5010748;28;45667;-77
2022/11/26 09:50:32;;;;;;;;;21.25;17.50;;;;;10.32;66.79;102254.88;5011410;28;47981;-78
2022/11/26 09:53:25;;;;;;;;;22.50;19.25;;;;;10.35;66.82;102252.16;5011275;28;46341;-76
2022/11/26 09:55:54;;;;;;;;;19.75;19.50;;;;;10.32;66.90;102241.78;5010223;28;45951;-77
2022/11/26 09:58:56;;;;;;;;;24.00;21.50;;;;;10.35;66.84;102248.69;5010417;28;45822;-77
2022/11/26 10:01:22;;;;;;;;;19.25;18.25;;;;;10.30;66.96;102235.78;5011195;28;47639;-77
2022/11/26 10:03:48;;;;;;;;;23.25;20.50;;;;;10.29;66.79;102226.22;5011429;28;46081;-78
2022/11/26 10:06:38;;;;;;;;;22.25;18.50;;;;;10.39;66.87;102245.84;5011330;28;45940;-78
2022/11/26 10:09:36;;;;;;;;;7.50;2.00;;;;;10.27;67.02;102220.19;5011639;28;45726;-77
2022/11/26 10:12:31;;;;;;;;;22.50;19.75;;;;;10.41;66.99;102245.78;5011384;28;45583;-77
2022/11/26 10:15:16;;;;;;;;;24.50;21.50;;;;;10.44;67.16;102251.72;5011676;28;46199;-77
2022/11/26 10:21:25;;;;;;;;;20.75;17.75;;;;;10.49;67.17;102238.44;5012402;28;45687;-78
2022/11/26 10:23:57;;;;;;;;;18.50;17.50;;;;;10.50;67.05;102245.38;5073015;28;46328;-78
2022/11/26 10:26:33;;;;;;;;;23.75;21.75;;;;;10.46;67.28;102233.34;5076154;28;46228;-77
2022/11/26 10:29:07;;;;;;;;;26.75;24.00;;;;;10.55;67.21;102234.69;5075168;28;45559;-75
2022/11/26 10:31:33;;;;;;;;;24.50;18.25;;;;;10.60;67.06;102230.94;5074262;27;45703;-78
2022/11/26 10:37:22;;;;;;;;;22.50;18.50;;;;;10.67;67.12;102214.03;5073355;28;46159;-78
2022/11/26 10:39:51;;;;;;;;;23.75;19.00;;;;;10.71;66.98;102206.84;5073041;27;45909;-76
2022/11/26 10:42:20;;;;;;;;;24.00;22.25;;;;;10.74;66.88;102206.72;5073267;27;45785;-79
2022/11/26 10:44:48;;;;;;;;;21.25;19.75;;;;;10.77;67.22;102203.97;5073433;27;45717;-78
2022/11/26 10:47:28;;;;;;;;;39.75;24.75;;;;;10.76;67.17;102210.13;5072942;27;45580;-76
2022/11/26 10:53:22;;;;;;;;;30.25;24.00;;;;;10.87;67.10;102218.34;5072486;28;45544;-77
2022/11/26 10:55:48;;;;;;;;;26.75;24.75;;;;;10.89;67.18;102222.59;5073143;27;45683;-77
2022/11/26 10:58:39;;;;;;;;;22.75;21.25;;;;;10.92;67.18;102230.31;5072638;27;46121;-77
2022/11/26 11:01:05;;;;;;;;;26.00;23.00;;;;;10.96;66.99;102227.56;5010662;28;45697;-77
2022/11/26 11:09:41;;;;;;;;;20.00;18.75;;;;;11.00;66.98;102231.75;5010450;28;45739;-77
2022/11/26 11:12:09;;;;;;;;;25.00;20.00;;;;;11.04;67.03;102235.91;5010533;28;45621;-75
2022/11/26 11:14:35;;;;;;;;;23.25;22.00;;;;;10.98;67.10;102218.69;5010707;28;45648;-76
2022/11/26 11:17:01;;;;;;;;;19.00;18.00;;;;;11.00;67.02;102216.84;5010149;28;47594;-76
2022/11/26 11:19:27;;;;;;;;;31.25;24.00;;;;;11.07;67.07;102215.63;5013170;28;46402;-79
2022/11/26 11:21:54;;;;;;;;;23.25;22.25;;;;;11.07;67.07;102205.13;4997226;28;45679;-75
2022/11/26 11:24:28;;;;;;;;;25.25;20.00;;;;;11.09;66.94;102208.53;5013783;28;45823;-77
2022/11/26 11:27:01;;;;;;;;;27.00;23.50;;;;;11.10;67.00;102209.41;5013430;28;45592;-77
2022/11/26 11:29:46;;;;;;;;;32.75;23.75;;;;;11.12;67.10;102195.25;5013097;28;45602;-76
2022/11/26 11:32:40;;;;;;;;;24.50;22.50;;;;;11.13;67.03;102188.25;5013778;28;45900;-76
2022/11/26 11:38:30;;;;;;;;;19.25;17.25;;;;;11.11;67.05;102182.25;5055155;28;45878;-76
2022/11/26 11:40:57;;;;;;;;;18.00;17.00;;;;;11.05;67.11;102182.53;5076041;27;46217;-78
2022/11/26 11:43:25;;;;;;;;;18.50;17.75;;;;;11.14;67.09;102205.69;5076071;27;45515;-76
2022/11/26 11:46:03;;;;;;;;;20.75;17.75;;;;;11.19;67.23;102207.19;5076431;27;45736;-78
2022/11/26 11:48:42;;;;;;;;;18.00;15.75;;;;;11.22;67.12;102211.44;5075638;27;46842;-78
2022/11/26 11:54:55;;;;;;;;;16.25;16.25;;;;;11.22;67.23;102230.66;5076121;28;45927;-78